Eastsound, WA

5:42 AM PDT on April 25, 2015 (GMT -0700)
Bellingham International | | Change Station
CLOSE
Current Station
Airport
Location: Bellingham,
Elevation: 151 ft
Nearby Weather Stations

Elev 151 ft 48.80 °N, 122.54 °W | Updated 5 minutes ago

Overcast
Overcast
37 °F
Feels Like 37 °F
N
0
Wind Variable Wind from North

Today
High -- | Low -- °F
--% Chance of Precip.
Yesterday
High -- | Low -- °F
Precip. -- in
6:02 AM 8:17 PM
Waxing Crescent, 45% visible
Pressure 29.91 in
Visibility 9.0 miles
Clouds Mostly Cloudy 1900 ft
Dew Point 36 °F
Humidity 93%
Rainfall 0.04 in
Snow Depth Not available.
UV 0 out of 12
Pollen 8.70 out of 12
Air Quality Not available.
Flu Activity Regional
SPECI KBLI 251237Z AUTO 00000KT 9SM BKN019 03/02 A2991 RMK AO2 P0001 $

More Conditions Fewer Conditions

Pressure 29.91 in
Visibility 9.0 miles
Clouds Mostly Cloudy 1900 ft
Dew Point 36 °F
Humidity 93%
Rainfall 0.04 in
Snow Depth Not available.
UV 0 out of 12
Pollen 8.70 out of 12
Air Quality Not available.
Flu Activity Regional
SPECI KBLI 251237Z AUTO 00000KT 9SM BKN019 03/02 A2991 RMK AO2 P0001 $

More Conditions Fewer Conditions

10-Day Weather Forecast

Almanac

Astronomy

Apr. 25, 2015 Rise Set
Actual Time
Civil Twilight
Nautical Twilight
Astronomical Twilight
Moon
Length of Visible Light
Length of Day
Tomorrow will be .
, % of the Moon is Illuminated

Today's Extremes

State Highs State Lows

Community

WunderPhotos

Upload Photos

1,816,649 photos uploaded!

WunderBlogs® & News

Nearby

Air Quality

  Air Quality AQ Index Pollutant
Not available.

Snow Depth

Station Depth Elevation

Earthquake Activity

City Distance Mag. Time & Date
Minimum magnitude displayed is 2.5.

Coastal Water Temperatures

Place Temperature

Stations

Nearby Weather Stations

Station Location Temp. Windchill Dew Point Humidity Wind Precip. Elev Updated Type